createdAt,value
2022-10-06T00:00:55.926Z,91.50
2022-10-06T00:03:23.117Z,91.50
2022-10-06T00:05:51.183Z,91.50
2022-10-06T00:08:18.995Z,91.50
2022-10-06T00:10:45.749Z,91.50
2022-10-06T00:13:12.492Z,91.50
2022-10-06T00:15:39.431Z,91.40
2022-10-06T00:18:06.252Z,91.40
2022-10-06T00:20:33.027Z,91.40
2022-10-06T00:22:59.764Z,91.40
2022-10-06T00:25:28.134Z,91.40
2022-10-06T00:27:55.305Z,91.40
2022-10-06T00:30:24.629Z,91.40
2022-10-06T00:32:57.904Z,91.40
2022-10-06T00:35:26.109Z,91.40
2022-10-06T00:37:53.099Z,91.40
2022-10-06T00:40:20.180Z,91.40
2022-10-06T00:42:59.239Z,91.40
2022-10-06T00:45:39.824Z,91.40
2022-10-06T00:48:21.977Z,91.40
2022-10-06T00:50:54.052Z,91.40
2022-10-06T00:53:21.968Z,91.40
2022-10-06T00:55:49.819Z,91.40
2022-10-06T00:58:17.043Z,91.40
2022-10-06T01:00:45.005Z,91.40
2022-10-06T01:03:30.001Z,91.40
2022-10-06T01:05:58.188Z,91.40
2022-10-06T01:08:26.054Z,91.40
2022-10-06T01:10:53.060Z,91.40
2022-10-06T01:13:20.129Z,91.40
2022-10-06T01:16:01.890Z,91.40
2022-10-06T01:18:30.702Z,91.40
2022-10-06T01:21:11.961Z,91.40
2022-10-06T01:23:39.635Z,91.40
2022-10-06T01:26:10.751Z,91.40
2022-10-06T01:28:39.384Z,91.30
2022-10-06T01:31:07.787Z,91.30
2022-10-06T01:33:34.612Z,91.30
2022-10-06T01:36:01.377Z,91.30
2022-10-06T01:38:28.418Z,91.30
2022-10-06T01:40:55.539Z,91.30
2022-10-06T01:43:22.304Z,91.30
2022-10-06T01:45:58.709Z,91.30
2022-10-06T01:48:27.184Z,91.30
2022-10-06T01:50:54.671Z,91.30
2022-10-06T01:53:22.216Z,91.30
2022-10-06T01:55:49.296Z,91.30
2022-10-06T01:58:16.053Z,91.30
2022-10-06T02:00:42.840Z,91.30
2022-10-06T02:03:09.815Z,91.30
2022-10-06T02:05:36.591Z,91.30
2022-10-06T02:10:35.070Z,91.30
2022-10-06T02:13:01.757Z,91.30
2022-10-06T02:15:33.015Z,91.30
2022-10-06T02:17:59.869Z,91.30
2022-10-06T02:20:26.616Z,91.30
2022-10-06T02:22:53.387Z,91.30
2022-10-06T02:25:20.247Z,91.30
2022-10-06T02:27:47.514Z,91.30
2022-10-06T02:30:14.533Z,91.30
2022-10-06T02:32:42.839Z,91.30
2022-10-06T02:35:12.758Z,91.30
2022-10-06T02:37:41.436Z,91.30
2022-10-06T02:40:09.345Z,91.30
2022-10-06T02:42:37.606Z,91.30
2022-10-06T02:45:06.947Z,91.30
2022-10-06T02:47:35.009Z,91.30
2022-10-06T02:50:02.629Z,91.30
2022-10-06T02:52:37.976Z,91.30
2022-10-06T02:55:05.980Z,91.30
2022-10-06T02:57:32.723Z,91.30
2022-10-06T02:59:59.472Z,91.30
2022-10-06T03:02:26.336Z,91.30
2022-10-06T03:04:53.160Z,91.30
2022-10-06T03:07:19.909Z,91.30
2022-10-06T03:09:46.618Z,91.30
2022-10-06T03:12:13.333Z,91.20
2022-10-06T03:14:40.091Z,91.20
2022-10-06T03:17:09.486Z,91.20
2022-10-06T03:19:37.326Z,91.20
2022-10-06T03:22:05.640Z,91.20
2022-10-06T03:24:32.746Z,91.20
2022-10-06T03:26:59.572Z,91.20
2022-10-06T03:29:26.904Z,91.20
2022-10-06T03:31:53.700Z,91.20
2022-10-06T03:34:20.427Z,91.20
2022-10-06T03:36:47.185Z,91.20
2022-10-06T03:39:13.892Z,91.20
2022-10-06T03:41:40.619Z,95.80
2022-10-06T03:44:07.404Z,95.80
2022-10-06T03:46:36.097Z,95.90
2022-10-06T03:49:03.671Z,95.80
2022-10-06T03:51:35.926Z,95.80
2022-10-06T03:54:03.356Z,95.80
2022-10-06T03:56:31.668Z,95.80
2022-10-06T03:59:03.971Z,95.80
2022-10-06T04:01:33.413Z,95.80
2022-10-06T04:04:01.386Z,95.80
2022-10-06T04:06:29.831Z,95.80
2022-10-06T04:08:56.795Z,95.80
2022-10-06T04:11:29.160Z,95.80
2022-10-06T04:14:00.352Z,95.80
2022-10-06T04:16:29.683Z,95.80
2022-10-06T04:18:59.006Z,95.80
2022-10-06T04:21:26.847Z,95.80
2022-10-06T04:23:55.056Z,95.80
2022-10-06T04:26:23.528Z,95.80
2022-10-06T04:28:50.357Z,95.80
2022-10-06T04:31:19.899Z,95.80
2022-10-06T04:33:50.196Z,95.80
2022-10-06T04:36:22.989Z,95.80
2022-10-06T04:38:56.225Z,95.80
2022-10-06T04:41:24.240Z,95.80
2022-10-06T04:43:51.881Z,95.80
2022-10-06T04:46:41.517Z,95.80
2022-10-06T04:49:06.789Z,95.80
2022-10-06T04:51:33.526Z,95.80
2022-10-06T04:54:01.097Z,95.80
2022-10-06T04:56:30.526Z,95.80
2022-10-06T04:58:58.360Z,95.80
2022-10-06T05:01:34.136Z,95.80
2022-10-06T05:04:02.172Z,95.80
2022-10-06T05:06:31.816Z,95.80
2022-10-06T05:09:01.132Z,95.80
2022-10-06T05:11:28.997Z,95.80
2022-10-06T05:13:58.673Z,95.80
2022-10-06T05:16:27.959Z,95.80
2022-10-06T05:18:54.821Z,95.80
2022-10-06T05:21:23.712Z,95.80
2022-10-06T05:23:50.739Z,95.80
2022-10-06T05:26:23.471Z,95.80
2022-10-06T05:28:50.366Z,95.80
2022-10-06T05:31:20.170Z,95.80
2022-10-06T05:33:47.635Z,95.80
2022-10-06T05:36:19.522Z,95.80
2022-10-06T05:38:47.073Z,95.80
2022-10-06T05:41:14.957Z,95.80
2022-10-06T05:43:42.639Z,95.80
2022-10-06T05:46:19.989Z,95.80
2022-10-06T05:48:48.140Z,95.80
2022-10-06T05:51:15.584Z,95.80
2022-10-06T05:53:42.557Z,95.90
2022-10-06T05:56:11.947Z,95.90
2022-10-06T05:58:40.944Z,95.90
2022-10-06T06:01:07.657Z,95.90
2022-10-06T06:03:34.442Z,95.90
2022-10-06T06:06:01.232Z,95.90
2022-10-06T06:08:28.346Z,91.30
2022-10-06T06:10:55.585Z,91.30
2022-10-06T06:13:22.979Z,91.30
2022-10-06T06:16:01.545Z,91.30
2022-10-06T06:18:29.082Z,91.30
2022-10-06T06:20:58.320Z,91.30
2022-10-06T06:23:25.842Z,91.40
2022-10-06T06:26:07.195Z,91.30
2022-10-06T06:28:35.551Z,91.40
2022-10-06T06:31:19.172Z,91.40
2022-10-06T06:33:47.818Z,91.40
2022-10-06T06:36:40.771Z,91.40
2022-10-06T06:39:12.877Z,91.50
2022-10-06T06:41:42.628Z,91.50
2022-10-06T06:44:11.443Z,91.50
2022-10-06T06:46:39.166Z,91.50
2022-10-06T06:49:06.861Z,91.60
2022-10-06T06:51:35.452Z,91.60
2022-10-06T06:54:05.186Z,91.60
2022-10-06T06:56:34.910Z,91.60
2022-10-06T06:59:08.868Z,91.60
2022-10-06T07:01:35.703Z,91.60
2022-10-06T07:04:02.655Z,91.70
2022-10-06T07:06:30.744Z,91.70
2022-10-06T07:08:59.331Z,91.70
2022-10-06T07:11:31.335Z,91.80
2022-10-06T07:14:01.561Z,91.80
2022-10-06T07:16:48.879Z,91.80
2022-10-06T07:19:36.311Z,91.80
2022-10-06T07:22:25.743Z,91.90
2022-10-06T07:25:12.946Z,91.90
2022-10-06T07:27:44.691Z,91.90
2022-10-06T07:30:21.165Z,91.90
2022-10-06T07:32:52.569Z,92.00
2022-10-06T07:35:20.821Z,92.00
2022-10-06T07:37:48.547Z,92.00
2022-10-06T07:40:15.565Z,92.00
2022-10-06T07:42:48.259Z,92.00
2022-10-06T07:45:35.408Z,92.10
2022-10-06T07:48:02.861Z,92.10
2022-10-06T07:50:29.719Z,92.10
2022-10-06T07:52:56.491Z,92.20
2022-10-06T07:55:23.479Z,92.20
2022-10-06T07:57:51.202Z,91.90
2022-10-06T08:00:22.659Z,92.00
2022-10-06T08:02:49.725Z,92.00
2022-10-06T08:05:16.478Z,92.10
2022-10-06T08:07:43.277Z,92.20
2022-10-06T08:10:10.294Z,92.20
2022-10-06T08:12:37.822Z,92.30
2022-10-06T08:15:09.088Z,92.40
2022-10-06T08:17:36.752Z,92.40
2022-10-06T08:20:08.401Z,92.50
2022-10-06T08:22:36.295Z,92.50
2022-10-06T08:25:07.152Z,92.60
2022-10-06T08:27:35.429Z,92.60
2022-10-06T08:30:04.072Z,92.70
2022-10-06T08:32:32.106Z,92.80
2022-10-06T08:34:59.165Z,92.80
2022-10-06T08:37:26.787Z,92.90
2022-10-06T08:39:54.620Z,92.90
2022-10-06T08:42:42.904Z,93.00
2022-10-06T08:45:24.058Z,93.00
2022-10-06T08:48:17.015Z,92.90
2022-10-06T08:51:05.021Z,92.90
2022-10-06T08:53:39.458Z,92.80
2022-10-06T08:56:24.869Z,92.70
2022-10-06T08:58:58.395Z,91.90
2022-10-06T09:01:26.519Z,88.90
2022-10-06T09:04:01.569Z,88.20
2022-10-06T09:07:06.609Z,89.40
2022-10-06T09:09:53.670Z,86.20
2022-10-06T09:12:28.839Z,63.00
2022-10-06T09:15:04.576Z,38.40
2022-10-06T09:17:37.902Z,28.00
2022-10-06T09:20:23.088Z,21.40
2022-10-06T09:22:51.578Z,22.20
2022-10-06T09:25:21.811Z,16.70
2022-10-06T09:27:53.108Z,17.40
2022-10-06T09:30:20.250Z,16.90
2022-10-06T09:32:49.080Z,7.20
2022-10-06T09:35:19.499Z,4.90
2022-10-06T09:38:08.950Z,4.40
2022-10-06T09:40:39.259Z,3.70
2022-10-06T09:43:28.187Z,4.30
2022-10-06T09:45:57.351Z,1.50
2022-10-06T09:48:26.026Z,1.30
2022-10-06T09:51:13.487Z,1.00
2022-10-06T09:53:41.885Z,1.00
2022-10-06T09:56:22.012Z,1.00
2022-10-06T09:58:59.551Z,1.00
2022-10-06T10:01:31.749Z,1.00
2022-10-06T10:04:21.397Z,1.00
2022-10-06T10:06:48.785Z,1.00
2022-10-06T10:09:24.326Z,1.00
2022-10-06T10:12:27.087Z,1.00
2022-10-06T10:15:23.251Z,1.00
2022-10-06T10:18:12.132Z,1.00
2022-10-06T10:20:40.082Z,1.00
2022-10-06T10:23:19.293Z,1.00
2022-10-06T10:26:10.366Z,1.00
2022-10-06T10:28:58.019Z,1.00
2022-10-06T10:31:27.753Z,1.00
2022-10-06T10:34:12.554Z,1.00
2022-10-06T10:36:52.038Z,1.00
2022-10-06T10:39:36.884Z,1.00
2022-10-06T10:42:13.874Z,1.00
2022-10-06T10:44:53.213Z,1.00
2022-10-06T10:47:28.141Z,1.00
2022-10-06T10:50:11.008Z,1.00
2022-10-06T10:52:43.620Z,1.00
2022-10-06T10:55:32.955Z,1.00
2022-10-06T10:58:12.813Z,1.00
2022-10-06T11:00:45.973Z,1.00
2022-10-06T11:03:12.966Z,1.00
2022-10-06T11:05:52.364Z,1.00
2022-10-06T11:08:30.237Z,1.00
2022-10-06T11:11:02.494Z,1.00
2022-10-06T11:13:45.940Z,1.00
2022-10-06T11:16:30.926Z,1.00
2022-10-06T11:19:29.902Z,1.00
2022-10-06T11:22:22.860Z,1.00
2022-10-06T11:25:30.015Z,1.00
2022-10-06T11:28:03.237Z,1.00
2022-10-06T11:30:33.640Z,1.00
2022-10-06T11:33:27.976Z,1.00
2022-10-06T11:35:54.947Z,1.00
2022-10-06T11:38:21.596Z,1.00
2022-10-06T11:40:49.909Z,1.00
2022-10-06T11:43:41.568Z,1.00
2022-10-06T11:46:14.280Z,1.00
2022-10-06T11:48:42.560Z,1.00
2022-10-06T11:51:24.468Z,1.00
2022-10-06T11:53:52.578Z,1.00
2022-10-06T11:56:19.426Z,1.00
2022-10-06T11:58:52.150Z,1.00
2022-10-06T12:01:45.172Z,1.00
2022-10-06T12:04:15.483Z,1.00
2022-10-06T12:06:51.219Z,1.00
2022-10-06T12:09:33.056Z,1.00
2022-10-06T12:12:15.147Z,1.00
2022-10-06T12:17:08.559Z,1.00
2022-10-06T12:18:05.136Z,1.00
2022-10-06T12:21:06.178Z,1.00
2022-10-06T12:23:46.972Z,1.00
2022-10-06T12:26:27.352Z,1.00
2022-10-06T12:29:03.805Z,1.00
2022-10-06T12:31:52.647Z,1.00
2022-10-06T12:34:53.660Z,1.00
2022-10-06T12:37:29.849Z,1.00
2022-10-06T12:40:35.388Z,1.00
2022-10-06T12:43:23.296Z,1.00
2022-10-06T12:45:56.493Z,1.00
2022-10-06T12:48:57.052Z,1.00
2022-10-06T12:51:44.442Z,1.00
2022-10-06T12:54:23.124Z,1.00
2022-10-06T12:56:58.963Z,1.00
2022-10-06T12:59:34.799Z,1.00
2022-10-06T13:02:19.267Z,1.00
2022-10-06T13:04:57.436Z,1.00
2022-10-06T13:07:34.027Z,1.00
2022-10-06T13:10:15.653Z,1.00
2022-10-06T13:12:47.391Z,1.00
2022-10-06T13:15:28.990Z,1.00
2022-10-06T13:18:07.679Z,1.00
2022-10-06T13:20:40.358Z,1.00
2022-10-06T13:23:10.210Z,1.00
2022-10-06T13:25:45.075Z,1.00
2022-10-06T13:28:23.780Z,1.00
2022-10-06T13:30:53.718Z,1.00
2022-10-06T13:33:21.271Z,1.00
2022-10-06T13:35:52.895Z,1.00
2022-10-06T13:38:20.799Z,1.00
2022-10-06T13:41:21.831Z,1.00
2022-10-06T13:44:02.914Z,1.00
2022-10-06T13:46:42.212Z,1.00
2022-10-06T13:49:23.363Z,1.00
2022-10-06T13:51:55.156Z,1.00
2022-10-06T13:54:31.425Z,1.00
2022-10-06T13:56:58.728Z,1.00
2022-10-06T13:59:31.976Z,1.00
2022-10-06T14:02:13.999Z,1.00
2022-10-06T14:04:40.893Z,1.00
2022-10-06T14:07:13.504Z,1.00
2022-10-06T14:09:42.114Z,1.00
2022-10-06T14:12:17.873Z,1.00
2022-10-06T14:14:50.156Z,1.00
2022-10-06T14:17:24.295Z,1.00
2022-10-06T14:19:51.769Z,1.00
2022-10-06T14:22:34.175Z,1.00
2022-10-06T14:25:02.147Z,1.00
2022-10-06T14:27:28.853Z,1.00
2022-10-06T14:29:56.861Z,1.00
2022-10-06T14:32:23.812Z,1.00
2022-10-06T14:34:50.558Z,1.00
2022-10-06T14:37:17.300Z,1.00
2022-10-06T14:39:45.433Z,1.00
2022-10-06T14:42:14.915Z,1.00
2022-10-06T14:44:43.187Z,1.00
2022-10-06T14:47:10.372Z,1.00
2022-10-06T14:49:37.864Z,1.00
2022-10-06T14:52:05.510Z,1.00
2022-10-06T14:54:34.387Z,1.00
2022-10-06T14:57:01.118Z,1.00
2022-10-06T14:59:28.052Z,1.00
2022-10-06T15:01:54.845Z,1.00
2022-10-06T15:04:26.492Z,1.00
2022-10-06T15:07:11.755Z,1.00
2022-10-06T15:09:38.467Z,1.00
2022-10-06T15:12:05.288Z,1.00
2022-10-06T15:14:33.518Z,1.00
2022-10-06T15:17:00.416Z,1.00
2022-10-06T15:19:27.481Z,1.00
2022-10-06T15:21:54.488Z,1.00
2022-10-06T15:24:21.320Z,1.00
2022-10-06T15:27:07.358Z,1.00
2022-10-06T15:29:37.047Z,1.00
2022-10-06T15:32:06.455Z,1.00
2022-10-06T15:34:34.539Z,1.00
2022-10-06T15:37:02.007Z,1.00
2022-10-06T15:39:34.607Z,1.00
2022-10-06T15:42:01.699Z,1.00
2022-10-06T15:44:31.617Z,1.00
2022-10-06T15:46:58.471Z,1.00
2022-10-06T15:49:26.804Z,1.00
2022-10-06T15:51:56.641Z,1.00
2022-10-06T15:54:28.968Z,1.00
2022-10-06T15:57:01.154Z,1.00
2022-10-06T15:59:29.804Z,1.00
2022-10-06T16:02:00.253Z,1.00
2022-10-06T16:04:32.971Z,1.00
2022-10-06T16:07:00.173Z,1.00
2022-10-06T16:09:29.894Z,1.00
2022-10-06T16:11:58.054Z,1.00
2022-10-06T16:14:25.658Z,1.00
2022-10-06T16:16:53.206Z,2.40
2022-10-06T16:19:20.238Z,6.40
2022-10-06T16:21:49.055Z,10.40
2022-10-06T16:24:21.010Z,13.70
2022-10-06T16:26:48.395Z,18.90
2022-10-06T16:29:17.108Z,18.60
2022-10-06T16:31:44.233Z,19.10
2022-10-06T16:34:11.980Z,19.90
2022-10-06T16:36:39.420Z,22.10
2022-10-06T16:39:09.926Z,25.20
2022-10-06T16:41:36.668Z,27.60
2022-10-06T16:44:03.557Z,29.10
2022-10-06T16:46:31.655Z,33.50
2022-10-06T16:49:00.250Z,34.90
2022-10-06T16:51:29.601Z,44.10
2022-10-06T16:53:59.188Z,62.10
2022-10-06T16:56:34.742Z,66.00
2022-10-06T16:59:04.806Z,70.00
2022-10-06T17:01:34.681Z,68.50
2022-10-06T17:04:06.493Z,73.60
2022-10-06T17:06:42.879Z,78.40
2022-10-06T17:09:13.936Z,79.70
2022-10-06T17:11:49.698Z,81.00
2022-10-06T17:14:17.259Z,83.40
2022-10-06T17:16:46.027Z,83.20
2022-10-06T17:19:15.512Z,84.20
2022-10-06T17:21:48.172Z,85.70
2022-10-06T17:24:17.903Z,85.90
2022-10-06T17:26:49.655Z,87.30
2022-10-06T17:29:19.267Z,89.10
2022-10-06T17:31:47.182Z,90.00
2022-10-06T17:34:20.328Z,90.40
2022-10-06T17:36:49.373Z,90.60
2022-10-06T17:39:21.484Z,91.00
2022-10-06T17:41:50.486Z,91.10
2022-10-06T17:44:22.527Z,91.20
2022-10-06T17:46:51.797Z,91.20
2022-10-06T17:49:20.797Z,91.40
2022-10-06T17:51:48.222Z,91.50
2022-10-06T17:54:19.082Z,91.40
2022-10-06T17:56:47.936Z,91.50
2022-10-06T17:59:23.473Z,91.50
2022-10-06T18:01:51.784Z,91.50
2022-10-06T18:04:19.311Z,91.50
2022-10-06T18:06:47.169Z,91.60
2022-10-06T18:09:14.769Z,91.70
2022-10-06T18:11:44.009Z,91.70
2022-10-06T18:14:12.375Z,91.70
2022-10-06T18:16:39.616Z,91.80
2022-10-06T18:19:13.233Z,91.80
2022-10-06T18:21:41.264Z,91.90
2022-10-06T18:24:17.683Z,91.90
2022-10-06T18:26:53.376Z,91.90
2022-10-06T18:29:23.808Z,92.00
2022-10-06T18:31:52.372Z,91.90
2022-10-06T18:37:06.493Z,92.00
2022-10-06T18:39:33.568Z,92.10
2022-10-06T18:42:03.635Z,92.10
2022-10-06T18:44:49.167Z,92.10
2022-10-06T18:47:34.540Z,92.10
2022-10-06T18:50:01.288Z,92.10
2022-10-06T18:52:28.693Z,92.10
2022-10-06T18:54:55.424Z,92.10
2022-10-06T18:57:27.300Z,92.10
2022-10-06T18:59:55.026Z,92.10
2022-10-06T19:02:21.925Z,92.10
2022-10-06T19:04:48.742Z,92.10
2022-10-06T19:07:15.497Z,92.10
2022-10-06T19:09:46.474Z,92.10
2022-10-06T19:12:14.325Z,92.10
2022-10-06T19:14:47.339Z,92.10
2022-10-06T19:17:15.066Z,92.20
2022-10-06T19:19:51.108Z,92.20
2022-10-06T19:22:19.651Z,92.20
2022-10-06T19:24:48.473Z,92.20
2022-10-06T19:27:20.545Z,92.20
2022-10-06T19:29:53.003Z,92.20
2022-10-06T19:32:26.232Z,92.20
2022-10-06T19:34:53.820Z,92.20
2022-10-06T19:37:20.564Z,92.20
2022-10-06T19:39:50.047Z,92.20
2022-10-06T19:42:36.770Z,92.20
2022-10-06T19:45:05.843Z,92.20
2022-10-06T19:47:32.783Z,92.20
2022-10-06T19:50:03.717Z,92.20
2022-10-06T19:52:33.353Z,92.20
2022-10-06T19:55:00.844Z,92.20
2022-10-06T19:57:29.195Z,92.20
2022-10-06T19:59:55.918Z,92.20
2022-10-06T20:02:23.401Z,92.20
2022-10-06T20:04:50.597Z,92.20
2022-10-06T20:07:21.534Z,92.30
2022-10-06T20:09:48.319Z,92.30
2022-10-06T20:12:18.658Z,92.30
2022-10-06T20:14:47.676Z,92.30
2022-10-06T20:17:14.414Z,92.30
2022-10-06T20:19:41.117Z,92.30
2022-10-06T20:22:07.862Z,92.30
2022-10-06T20:24:35.208Z,92.30
2022-10-06T20:27:01.924Z,92.30
2022-10-06T20:29:28.820Z,92.30
2022-10-06T20:31:58.836Z,92.30
2022-10-06T20:34:31.649Z,92.30
2022-10-06T20:37:02.571Z,92.30
2022-10-06T20:39:50.437Z,92.30
2022-10-06T20:42:19.635Z,92.30
2022-10-06T20:44:46.472Z,92.30
2022-10-06T20:47:13.553Z,92.30
2022-10-06T20:49:42.401Z,92.30
2022-10-06T20:52:10.021Z,92.30
2022-10-06T20:54:37.487Z,92.40
2022-10-06T20:57:06.467Z,92.30
2022-10-06T20:59:37.003Z,92.30
2022-10-06T21:02:05.133Z,92.30
2022-10-06T21:04:32.566Z,92.30
2022-10-06T21:06:59.441Z,92.40
2022-10-06T21:09:28.337Z,92.40
2022-10-06T21:11:56.363Z,92.40
2022-10-06T21:14:23.367Z,92.30
2022-10-06T21:16:51.347Z,92.30
2022-10-06T21:19:19.492Z,92.30
2022-10-06T21:21:51.894Z,92.30
2022-10-06T21:24:19.454Z,92.30
2022-10-06T21:26:46.684Z,92.40
2022-10-06T21:29:16.122Z,92.40
2022-10-06T21:31:44.523Z,92.40
2022-10-06T21:34:11.843Z,92.40
2022-10-06T21:36:38.754Z,92.40
2022-10-06T21:39:06.081Z,92.30
2022-10-06T21:41:38.786Z,92.30
2022-10-06T21:44:13.973Z,92.30
2022-10-06T21:46:55.074Z,92.40
2022-10-06T21:49:25.518Z,92.40
2022-10-06T21:51:54.013Z,92.40
2022-10-06T21:54:22.258Z,92.30
2022-10-06T21:56:49.681Z,92.40
2022-10-06T21:59:16.447Z,92.40
2022-10-06T22:01:45.072Z,92.40
2022-10-06T22:04:14.152Z,92.30
2022-10-06T22:06:41.551Z,92.40
2022-10-06T22:09:11.546Z,92.40
2022-10-06T22:11:40.206Z,92.40
2022-10-06T22:14:11.216Z,92.40
2022-10-06T22:16:38.414Z,92.40
2022-10-06T22:19:07.407Z,92.40
2022-10-06T22:21:42.403Z,92.40
2022-10-06T22:24:12.346Z,92.40
2022-10-06T22:26:40.880Z,92.40
2022-10-06T22:29:10.112Z,92.40
2022-10-06T22:31:39.598Z,92.40
2022-10-06T22:34:07.470Z,92.40
2022-10-06T22:36:34.939Z,92.40
2022-10-06T22:39:02.165Z,92.30
2022-10-06T22:41:29.808Z,92.40
2022-10-06T22:43:58.109Z,92.40
2022-10-06T22:46:30.812Z,92.40
2022-10-06T22:48:58.379Z,92.40
2022-10-06T22:51:25.554Z,92.40
2022-10-06T22:53:58.457Z,92.40
2022-10-06T22:56:27.138Z,92.40
2022-10-06T22:58:54.313Z,92.40
2022-10-06T23:01:21.249Z,92.40
2022-10-06T23:03:48.350Z,92.40
2022-10-06T23:06:17.188Z,92.40
2022-10-06T23:08:44.641Z,92.40
2022-10-06T23:11:17.256Z,92.40
2022-10-06T23:13:44.690Z,92.40
2022-10-06T23:16:13.622Z,92.40
2022-10-06T23:18:42.146Z,92.40
2022-10-06T23:21:18.777Z,92.40
2022-10-06T23:23:46.129Z,92.40
2022-10-06T23:26:14.815Z,92.40
2022-10-06T23:28:42.290Z,92.40
2022-10-06T23:31:10.293Z,92.30
2022-10-06T23:33:37.250Z,92.30
2022-10-06T23:36:09.729Z,92.30
2022-10-06T23:38:38.113Z,92.30
2022-10-06T23:41:06.222Z,92.30
2022-10-06T23:43:33.137Z,92.30
2022-10-06T23:46:00.089Z,92.30
2022-10-06T23:48:26.982Z,92.30
2022-10-06T23:51:02.112Z,92.30
2022-10-06T23:53:30.051Z,92.30
2022-10-06T23:55:57.766Z,92.30
2022-10-06T23:58:24.582Z,92.30
